Time;durP1;ratioP1;P1;durP2;ratioP2;P2;SDS_P1;SDS_P2;PMS_P1;PMS_P2;Temp;Humidity;BMP_temperature;BMP_pressure;BME280_temperature;BME280_humidity;BME280_pressure;Samples;Min_cycle;Max_cycle;Signal;HPM_P1;HPM_P2
2024/01/15 00:02:07;;;;;;;;;6.60;6.40;;;;;1.48;86.72;98469.44;5078545;28;8809;-60
2024/01/15 00:04:35;;;;;;;;;5.20;5.20;;;;;1.47;86.76;98459.91;5078825;28;8840;-57
2024/01/15 00:07:03;;;;;;;;;8.20;7.40;;;;;1.47;86.42;98452.03;5079032;28;8926;-60
2024/01/15 00:09:31;;;;;;;;;5.60;4.40;;;;;1.46;87.14;98458.19;5078676;28;8936;-58
2024/01/15 00:11:59;;;;;;;;;7.20;7.20;;;;;1.47;86.71;98456.41;5078881;28;8821;-59
2024/01/15 00:14:27;;;;;;;;;8.60;7.60;;;;;1.47;86.61;98451.16;5078040;28;8935;-57
2024/01/15 00:16:55;;;;;;;;;3.00;3.00;;;;;1.46;86.72;98447.69;5085947;28;8834;-60
2024/01/15 00:19:23;;;;;;;;;7.20;6.40;;;;;1.47;86.95;98444.16;5098631;28;8826;-57
2024/01/15 00:21:51;;;;;;;;;11.60;9.20;;;;;1.49;86.70;98444.88;5098712;28;8864;-57
2024/01/15 00:24:19;;;;;;;;;10.20;9.40;;;;;1.48;86.86;98445.84;5098512;28;8856;-59
2024/01/15 00:26:47;;;;;;;;;5.60;5.60;;;;;1.49;87.34;98438.78;5097860;28;8840;-59
2024/01/15 00:29:15;;;;;;;;;8.80;7.00;;;;;1.49;87.16;98438.78;5096525;28;8829;-57
2024/01/15 00:31:44;;;;;;;;;8.60;8.20;;;;;1.50;86.62;98438.69;5099405;28;9909;-59
2024/01/15 00:34:13;;;;;;;;;3.40;3.40;;;;;1.50;87.00;98430.84;5104504;28;9501;-59
2024/01/15 00:36:43;;;;;;;;;8.60;6.80;;;;;1.50;86.94;98425.59;5104359;28;8854;-57
2024/01/15 00:39:13;;;;;;;;;13.60;12.40;;;;;1.52;86.41;98426.31;5104860;28;8818;-60
2024/01/15 00:41:42;;;;;;;;;3.80;3.20;;;;;1.52;86.34;98426.31;5104853;28;8826;-60
2024/01/15 00:44:12;;;;;;;;;7.40;7.40;;;;;1.51;86.67;98427.25;5104350;28;8830;-59
2024/01/15 00:46:41;;;;;;;;;9.80;6.80;;;;;1.54;86.50;98434.09;5105226;28;8950;-60
2024/01/15 00:49:11;;;;;;;;;12.00;10.20;;;;;1.54;86.54;98427.06;5104593;28;8956;-59
2024/01/15 00:51:41;;;;;;;;;10.20;7.40;;;;;1.56;86.89;98432.19;5104147;28;8878;-59
2024/01/15 00:54:11;;;;;;;;;2.20;1.80;;;;;1.56;87.35;98430.41;5104413;28;8884;-58
2024/01/15 00:56:41;;;;;;;;;13.60;12.40;;;;;1.56;86.46;98427.81;5104454;28;8890;-60
2024/01/15 00:59:10;;;;;;;;;6.00;6.00;;;;;1.56;86.91;98424.31;5101914;28;8934;-59
2024/01/15 01:01:38;;;;;;;;;6.00;4.80;;;;;1.59;86.99;98432.81;5096825;28;8940;-57
2024/01/15 01:04:06;;;;;;;;;3.00;2.60;;;;;1.59;86.90;98419.72;5097884;28;8845;-57
2024/01/15 01:06:33;;;;;;;;;6.20;6.00;;;;;1.61;87.27;98427.50;5097673;28;8902;-59
2024/01/15 01:09:01;;;;;;;;;3.60;2.60;;;;;1.60;87.06;98424.00;5097306;28;8902;-60
2024/01/15 01:11:29;;;;;;;;;5.60;4.80;;;;;1.62;86.48;98421.28;5096836;28;8843;-60
2024/01/15 01:13:57;;;;;;;;;6.80;5.60;;;;;1.63;86.51;98421.19;5097376;28;8968;-60
2024/01/15 01:16:25;;;;;;;;;9.00;7.00;;;;;1.65;86.44;98429.78;5096360;28;8862;-57
2024/01/15 01:18:52;;;;;;;;;7.40;6.40;;;;;1.65;87.11;98419.31;5081233;28;8928;-58
2024/01/15 01:21:20;;;;;;;;;0.20;0.20;;;;;1.67;86.66;98421.81;5075820;28;8920;-58
2024/01/15 01:23:48;;;;;;;;;4.00;4.00;;;;;1.68;86.06;98415.63;5074757;28;8884;-58
2024/01/15 01:26:16;;;;;;;;;4.00;4.00;;;;;1.67;86.41;98420.03;5074478;28;8829;-59
2024/01/15 01:28:44;;;;;;;;;8.60;8.40;;;;;1.69;86.74;98415.53;5074788;28;9534;-59
2024/01/15 01:31:11;;;;;;;;;9.80;9.00;;;;;1.68;86.97;98419.06;5075259;28;8832;-59
2024/01/15 01:33:39;;;;;;;;;9.60;6.40;;;;;1.70;86.19;98411.13;5074932;28;8915;-59
2024/01/15 01:36:07;;;;;;;;;9.60;9.00;;;;;1.69;86.64;98418.16;5074581;28;8814;-56
2024/01/15 01:38:35;;;;;;;;;10.00;6.60;;;;;1.70;86.94;98422.47;5075720;28;8826;-60
2024/01/15 01:41:03;;;;;;;;;9.00;9.00;;;;;1.71;86.70;98423.28;5075724;28;8825;-58
2024/01/15 01:43:31;;;;;;;;;3.40;3.40;;;;;1.70;86.60;98426.84;5074582;28;8915;-59
2024/01/15 01:45:59;;;;;;;;;3.20;3.20;;;;;1.71;86.92;98423.28;5075328;28;8818;-57
2024/01/15 01:48:26;;;;;;;;;5.60;3.80;;;;;1.71;86.44;98424.13;5085126;28;8887;-59
2024/01/15 01:50:54;;;;;;;;;10.60;10.20;;;;;1.73;86.61;98421.38;5080564;28;8843;-59
2024/01/15 01:53:23;;;;;;;;;9.40;9.20;;;;;1.74;86.67;98425.72;5076076;28;8828;-59
2024/01/15 01:55:50;;;;;;;;;5.00;4.00;;;;;1.75;86.66;98419.53;5076080;28;8913;-59
2024/01/15 01:58:18;;;;;;;;;6.60;6.00;;;;;1.75;86.32;98409.84;5075277;28;8820;-59
2024/01/15 02:00:46;;;;;;;;;7.40;6.40;;;;;1.76;86.79;98414.13;5076482;28;8824;-59
2024/01/15 02:03:14;;;;;;;;;10.00;7.00;;;;;1.76;86.61;98411.53;5075957;28;8861;-60
2024/01/15 02:05:41;;;;;;;;;3.00;3.00;;;;;1.77;86.43;98407.97;5075938;28;8824;-60
2024/01/15 02:08:09;;;;;;;;;11.40;9.40;;;;;1.77;86.27;98401.88;5076653;28;8828;-57
2024/01/15 02:10:37;;;;;;;;;7.00;7.00;;;;;1.77;86.89;98410.59;5076713;28;8812;-58
2024/01/15 02:13:04;;;;;;;;;11.20;9.00;;;;;1.77;86.19;98413.22;5075340;28;8835;-58
2024/01/15 02:15:32;;;;;;;;;8.00;6.40;;;;;1.76;86.33;98413.31;5076323;28;8824;-59
2024/01/15 02:18:00;;;;;;;;;4.00;3.60;;;;;1.73;86.86;98406.50;5095070;28;8898;-60
2024/01/15 02:20:28;;;;;;;;;9.80;9.20;;;;;1.73;86.26;98410.88;5096017;28;8856;-58
2024/01/15 02:22:56;;;;;;;;;4.80;4.60;;;;;1.72;86.37;98414.47;5096037;28;8833;-59
2024/01/15 02:25:24;;;;;;;;;8.20;6.20;;;;;1.71;87.06;98412.78;5096150;28;8875;-58
2024/01/15 02:27:51;;;;;;;;;4.00;4.00;;;;;1.69;86.95;98415.53;5095833;28;8817;-59
2024/01/15 02:30:19;;;;;;;;;3.20;3.20;;;;;1.71;87.14;98415.41;5095987;28;8825;-59
2024/01/15 02:32:47;;;;;;;;;11.20;10.80;;;;;1.70;86.87;98417.22;5095353;28;8817;-59
2024/01/15 02:35:15;;;;;;;;;9.60;9.40;;;;;1.70;86.29;98421.59;5095414;28;8841;-59
2024/01/15 02:37:42;;;;;;;;;5.80;5.20;;;;;1.70;86.67;98418.97;5095837;28;8841;-57
2024/01/15 02:40:10;;;;;;;;;8.20;3.00;;;;;1.70;86.42;98417.22;5095907;28;8840;-58
2024/01/15 02:42:38;;;;;;;;;6.40;6.00;;;;;1.69;86.64;98410.28;5096321;28;8872;-57
2024/01/15 02:45:05;;;;;;;;;3.80;3.80;;;;;1.69;86.60;98417.31;5095843;28;8817;-57
2024/01/15 02:47:33;;;;;;;;;9.00;7.80;;;;;1.69;86.28;98417.31;5095932;28;8938;-57
2024/01/15 02:50:01;;;;;;;;;10.00;9.60;;;;;1.69;86.45;98426.03;5095666;28;8909;-58
2024/01/15 02:52:29;;;;;;;;;2.80;1.80;;;;;1.69;86.79;98419.94;5095751;28;8824;-57
2024/01/15 02:54:56;;;;;;;;;6.60;6.00;;;;;1.66;86.89;98420.97;5095811;28;8855;-56
2024/01/15 02:57:24;;;;;;;;;8.20;6.60;;;;;1.65;86.54;98426.31;5095551;28;8837;-57
2024/01/15 02:59:52;;;;;;;;;9.20;6.60;;;;;1.66;86.76;98425.41;5095992;28;9556;-57
2024/01/15 03:02:19;;;;;;;;;7.00;7.00;;;;;1.67;86.76;98427.06;5095214;28;8827;-58
2024/01/15 03:04:47;;;;;;;;;8.20;6.60;;;;;1.68;86.91;98410.38;5095717;28;8824;-57
2024/01/15 03:07:15;;;;;;;;;9.20;8.20;;;;;1.68;86.76;98419.06;5095960;28;8811;-57
2024/01/15 03:09:43;;;;;;;;;9.40;9.00;;;;;1.68;86.46;98411.22;5095877;28;8827;-58
2024/01/15 03:12:11;;;;;;;;;12.20;9.00;;;;;1.67;87.14;98404.28;5095550;28;8820;-60
2024/01/15 03:14:39;;;;;;;;;4.00;3.00;;;;;1.66;86.61;98405.22;5094667;28;8826;-59
2024/01/15 03:17:08;;;;;;;;;1.00;1.00;;;;;1.62;86.48;98411.66;5095319;28;8854;-57
2024/01/15 03:19:36;;;;;;;;;3.60;1.80;;;;;1.61;86.85;98411.75;5095710;28;9527;-59
2024/01/15 03:22:04;;;;;;;;;7.80;6.40;;;;;1.60;86.66;98400.41;5095498;28;9539;-57
2024/01/15 03:24:32;;;;;;;;;6.80;6.60;;;;;1.59;86.58;98403.97;5096651;28;8830;-58
2024/01/15 03:26:59;;;;;;;;;4.00;4.00;;;;;1.60;86.77;98413.50;5099879;28;8836;-58
2024/01/15 03:29:27;;;;;;;;;1.80;1.80;;;;;1.61;87.05;98417.00;5099563;28;8832;-59
2024/01/15 03:31:55;;;;;;;;;9.00;7.60;;;;;1.62;87.26;98413.44;5089658;28;8832;-57
2024/01/15 03:34:23;;;;;;;;;3.00;3.00;;;;;1.63;86.75;98415.94;5079119;28;8845;-59
2024/01/15 03:36:50;;;;;;;;;6.60;4.80;;;;;1.64;86.95;98416.78;5079417;28;8813;-59
2024/01/15 03:39:18;;;;;;;;;10.80;9.00;;;;;1.65;86.80;98414.06;5079349;28;8830;-59
2024/01/15 03:41:46;;;;;;;;;8.80;7.20;;;;;1.63;86.82;98413.31;5079329;28;8822;-57
2024/01/15 03:44:13;;;;;;;;;6.80;5.80;;;;;1.64;87.10;98420.25;5079154;28;8974;-57
2024/01/15 03:46:41;;;;;;;;;12.60;12.00;;;;;1.63;87.11;98410.72;5078855;28;8834;-59
2024/01/15 03:49:09;;;;;;;;;9.20;8.60;;;;;1.63;86.72;98409.84;5079157;28;8806;-59
2024/01/15 03:51:37;;;;;;;;;6.00;6.00;;;;;1.63;86.53;98405.47;5078968;28;8947;-59
2024/01/15 03:54:05;;;;;;;;;6.20;5.60;;;;;1.64;86.77;98409.75;5079212;28;8818;-59
2024/01/15 03:56:33;;;;;;;;;7.80;7.80;;;;;1.65;87.38;98410.56;5085329;28;8846;-58
2024/01/15 03:59:00;;;;;;;;;9.40;8.20;;;;;1.66;86.84;98410.47;5099170;28;9517;-58
2024/01/15 04:01:28;;;;;;;;;6.40;6.40;;;;;1.66;86.79;98410.47;5099065;28;8867;-59
2024/01/15 04:03:56;;;;;;;;;8.40;7.80;;;;;1.68;86.68;98408.59;5098809;28;8894;-58
2024/01/15 04:06:23;;;;;;;;;9.40;9.40;;;;;1.69;86.77;98409.44;5099101;28;8863;-58
2024/01/15 04:08:51;;;;;;;;;5.60;5.20;;;;;1.70;86.72;98405.88;5098679;28;8861;-60
2024/01/15 04:11:19;;;;;;;;;4.80;4.00;;;;;1.71;86.58;98413.63;5099221;28;8825;-58
2024/01/15 04:13:47;;;;;;;;;6.60;5.20;;;;;1.71;86.45;98399.66;5098974;28;8802;-58
2024/01/15 04:16:14;;;;;;;;;1.20;1.20;;;;;1.72;86.43;98403.97;5098949;28;8838;-57
2024/01/15 04:18:42;;;;;;;;;5.80;5.80;;;;;1.70;86.39;98393.59;5098862;28;8864;-58
2024/01/15 04:21:10;;;;;;;;;7.00;7.00;;;;;1.72;86.35;98393.47;5098880;28;8839;-59
2024/01/15 04:23:38;;;;;;;;;3.60;2.20;;;;;1.74;86.80;98381.13;5098550;28;8893;-59
2024/01/15 04:26:05;;;;;;;;;6.00;4.00;;;;;1.75;87.04;98375.75;5098398;28;8830;-58
2024/01/15 04:28:33;;;;;;;;;6.60;4.00;;;;;1.76;86.23;98379.22;5098259;28;8846;-59
2024/01/15 04:31:01;;;;;;;;;7.80;7.40;;;;;1.77;86.62;98381.75;5098253;28;8827;-59
2024/01/15 04:33:29;;;;;;;;;3.20;2.60;;;;;1.78;86.34;98372.94;5098010;28;8888;-59
2024/01/15 04:35:57;;;;;;;;;7.60;7.20;;;;;1.76;86.71;98363.47;5097192;28;8839;-59
2024/01/15 04:38:25;;;;;;;;;7.60;6.40;;;;;1.73;86.28;98361.91;5097728;28;8958;-60
2024/01/15 04:40:52;;;;;;;;;1.00;0.20;;;;;1.68;87.13;98356.13;5097988;28;8815;-59
2024/01/15 04:43:24;;;;;;;;;7.40;7.40;;;;;1.66;86.35;98370.31;5097782;28;8815;-58
2024/01/15 04:45:52;;;;;;;;;3.40;3.20;;;;;1.63;86.94;98371.38;5097968;28;8834;-60
2024/01/15 04:48:20;;;;;;;;;6.40;4.00;;;;;1.64;86.79;98373.03;5098098;28;8804;-57
2024/01/15 04:50:48;;;;;;;;;4.00;3.40;;;;;1.66;86.60;98370.31;5097590;28;8842;-57
2024/01/15 04:53:15;;;;;;;;;7.00;4.00;;;;;1.66;86.86;98365.06;5097812;28;8823;-59
2024/01/15 04:55:43;;;;;;;;;6.40;6.00;;;;;1.68;86.53;98353.50;5097916;28;8836;-60
2024/01/15 04:58:12;;;;;;;;;5.20;3.00;;;;;1.70;86.53;98342.91;5097030;28;8828;-59
2024/01/15 05:00:39;;;;;;;;;4.00;2.60;;;;;1.72;87.36;98347.13;5097906;28;8845;-57
2024/01/15 05:03:07;;;;;;;;;6.80;5.60;;;;;1.72;86.99;98344.50;5097938;28;9488;-60
2024/01/15 05:05:35;;;;;;;;;6.80;4.80;;;;;1.72;86.79;98344.50;5097400;28;8810;-59
2024/01/15 05:08:02;;;;;;;;;3.80;3.40;;;;;1.73;86.75;98340.06;5097797;28;8810;-59
2024/01/15 05:10:30;;;;;;;;;4.40;4.20;;;;;1.73;86.38;98333.03;5097746;28;8930;-59
2024/01/15 05:12:58;;;;;;;;;3.00;3.00;;;;;1.73;86.99;98330.41;5097829;28;8814;-59
2024/01/15 05:15:25;;;;;;;;;0.80;0.40;;;;;1.76;87.17;98334.63;5097577;28;8836;-59
2024/01/15 05:17:53;;;;;;;;;4.40;3.80;;;;;1.78;86.90;98340.59;5097834;28;8831;-59
2024/01/15 05:20:21;;;;;;;;;6.20;4.80;;;;;1.80;86.24;98333.44;5097368;28;8818;-59
2024/01/15 05:22:49;;;;;;;;;4.80;3.80;;;;;1.82;86.41;98348.13;5097783;28;8818;-58
2024/01/15 05:25:16;;;;;;;;;3.80;3.80;;;;;1.82;87.08;98342.88;5096965;28;9541;-58
2024/01/15 05:27:44;;;;;;;;;1.80;1.80;;;;;1.84;86.26;98341.03;5095447;28;8806;-58
2024/01/15 05:30:12;;;;;;;;;3.20;3.20;;;;;1.86;86.30;98340.88;5095714;28;8825;-59
2024/01/15 05:32:40;;;;;;;;;4.80;4.40;;;;;1.86;86.68;98338.25;5096004;28;8837;-58
2024/01/15 05:35:07;;;;;;;;;3.00;2.60;;;;;1.87;86.14;98337.31;5096143;28;8829;-57
2024/01/15 05:37:35;;;;;;;;;5.20;4.40;;;;;1.87;86.08;98335.53;5096341;28;8829;-58
2024/01/15 05:40:04;;;;;;;;;8.80;8.80;;;;;1.90;86.69;98334.50;5096072;28;8825;-59
2024/01/15 05:42:32;;;;;;;;;4.00;4.00;;;;;1.91;86.43;98342.22;5096593;28;9629;-57
2024/01/15 05:45:02;;;;;;;;;3.20;3.00;;;;;1.92;86.74;98345.72;5096390;28;8837;-59
2024/01/15 05:47:30;;;;;;;;;4.00;4.00;;;;;1.94;86.26;98338.56;5095907;28;8829;-59
2024/01/15 05:49:57;;;;;;;;;3.00;3.00;;;;;1.92;86.45;98328.19;5096383;28;8833;-57
2024/01/15 05:52:25;;;;;;;;;4.00;3.60;;;;;1.93;86.10;98321.16;5096620;28;8864;-59
2024/01/15 05:54:53;;;;;;;;;4.00;4.00;;;;;1.93;86.10;98329.03;5096449;28;8825;-58
2024/01/15 05:57:21;;;;;;;;;8.60;6.80;;;;;1.93;86.10;98329.03;5096095;28;8837;-57
2024/01/15 05:59:49;;;;;;;;;3.80;3.40;;;;;1.92;86.46;98330.81;5096536;28;8833;-59
2024/01/15 06:02:16;;;;;;;;;4.40;4.40;;;;;1.92;86.54;98328.19;5095923;28;8837;-58
2024/01/15 06:04:44;;;;;;;;;2.00;1.80;;;;;1.93;86.25;98323.78;5095740;28;9484;-58
2024/01/15 06:07:12;;;;;;;;;4.80;3.20;;;;;1.92;86.29;98324.72;5096028;28;8814;-59
2024/01/15 06:09:40;;;;;;;;;3.00;3.00;;;;;1.92;86.00;98328.19;5096078;28;8810;-58
2024/01/15 06:12:08;;;;;;;;;3.40;3.40;;;;;1.93;85.88;98329.03;5096137;28;9572;-60
2024/01/15 06:14:35;;;;;;;;;4.00;4.00;;;;;1.93;86.41;98323.78;5096054;28;8960;-59
2024/01/15 06:17:03;;;;;;;;;1.00;1.00;;;;;1.92;86.27;98322.94;5095284;28;8838;-58
2024/01/15 06:19:31;;;;;;;;;0.00;0.00;;;;;1.93;86.39;98324.63;5094174;28;8856;-60
2024/01/15 06:21:59;;;;;;;;;4.40;4.00;;;;;1.92;86.37;98328.19;5094265;28;8825;-60
2024/01/15 06:24:27;;;;;;;;;3.80;3.80;;;;;1.93;86.04;98318.53;5094874;28;9751;-58
2024/01/15 06:26:55;;;;;;;;;3.40;2.20;;;;;1.93;86.13;98308.88;5094280;28;8991;-58
2024/01/15 06:29:24;;;;;;;;;6.00;3.20;;;;;1.92;86.42;98320.31;5094059;28;8833;-56
2024/01/15 06:31:51;;;;;;;;;4.80;4.00;;;;;1.93;85.88;98313.28;5093838;28;8859;-57
2024/01/15 06:34:19;;;;;;;;;6.20;4.00;;;;;1.92;87.00;98317.69;5093890;28;8825;-57
2024/01/15 06:36:47;;;;;;;;;5.60;5.60;;;;;1.92;85.92;98306.34;5094014;28;8963;-59
2024/01/15 06:39:15;;;;;;;;;5.60;5.20;;;;;1.91;86.24;98313.38;5093822;28;8991;-60
2024/01/15 06:41:44;;;;;;;;;6.40;6.00;;;;;1.92;86.21;98306.34;5093423;28;8916;-59
2024/01/15 06:44:12;;;;;;;;;2.60;2.60;;;;;1.91;86.05;98310.75;5094456;28;8865;-59
2024/01/15 06:46:39;;;;;;;;;6.60;5.20;;;;;1.92;86.30;98301.09;5094157;28;8964;-59
2024/01/15 06:49:07;;;;;;;;;4.80;3.00;;;;;1.92;86.44;98298.47;5094035;28;8825;-57
2024/01/15 06:51:35;;;;;;;;;3.00;3.00;;;;;1.91;86.44;98300.25;5093788;28;8837;-57
2024/01/15 06:54:03;;;;;;;;;6.20;5.80;;;;;1.91;86.02;98302.06;5094341;28;8845;-59
2024/01/15 06:56:30;;;;;;;;;2.20;1.00;;;;;1.90;86.83;98303.81;5093957;28;8851;-58
2024/01/15 06:58:58;;;;;;;;;3.20;3.20;;;;;1.91;85.95;98299.44;5093959;28;8837;-57
2024/01/15 07:01:26;;;;;;;;;7.60;4.00;;;;;1.90;86.18;98303.81;5097783;28;9507;-57
2024/01/15 07:03:54;;;;;;;;;1.40;1.40;;;;;1.90;86.13;98308.25;5097690;28;9826;-58
2024/01/15 07:06:21;;;;;;;;;4.20;2.20;;;;;1.90;86.31;98314.31;5097876;28;8829;-58
2024/01/15 07:08:49;;;;;;;;;3.00;3.00;;;;;1.91;86.72;98310.75;5097010;28;8851;-57
2024/01/15 07:11:17;;;;;;;;;3.60;3.00;;;;;1.91;86.17;98318.63;5096945;28;9752;-56
2024/01/15 07:13:45;;;;;;;;;7.00;5.60;;;;;1.92;86.67;98319.47;5098382;28;8882;-59
2024/01/15 07:16:13;;;;;;;;;9.00;8.60;;;;;1.93;86.23;98318.53;5097853;28;8867;-57
2024/01/15 07:18:51;;;;;;;;;5.80;5.80;;;;;1.93;85.92;98319.38;5097207;28;9541;-59
2024/01/15 07:21:19;;;;;;;;;6.20;6.20;;;;;1.94;85.92;98317.56;5097355;28;8826;-59
2024/01/15 07:23:47;;;;;;;;;3.60;3.00;;;;;1.95;86.54;98317.47;5097756;28;8851;-57
2024/01/15 07:26:15;;;;;;;;;5.60;4.80;;;;;1.95;86.03;98317.47;5098014;28;8833;-59
2024/01/15 07:28:43;;;;;;;;;5.60;4.40;;;;;1.95;86.42;98317.47;5098051;28;8806;-57
2024/01/15 07:31:10;;;;;;;;;7.20;6.80;;;;;1.96;86.61;98321.75;5097983;28;8968;-59
2024/01/15 07:33:38;;;;;;;;;5.60;5.60;;;;;1.96;86.42;98313.91;5098404;28;8825;-59
2024/01/15 07:36:06;;;;;;;;;3.00;3.00;;;;;1.97;86.07;98310.31;5099184;28;8830;-59
2024/01/15 07:38:34;;;;;;;;;3.00;3.00;;;;;1.97;86.20;98309.50;5099661;28;8830;-56
2024/01/15 07:41:02;;;;;;;;;5.60;3.40;;;;;1.97;85.81;98315.56;5099664;28;8830;-59
2024/01/15 07:43:29;;;;;;;;;6.80;6.00;;;;;1.97;85.80;98314.75;5099088;28;8833;-59
2024/01/15 07:45:58;;;;;;;;;5.20;5.20;;;;;1.96;86.24;98313.91;5098519;28;8829;-59
2024/01/15 07:48:26;;;;;;;;;7.40;6.40;;;;;1.96;86.29;98310.44;5098464;28;8814;-57
2024/01/15 07:50:54;;;;;;;;;2.20;2.20;;;;;1.96;86.46;98310.44;5098396;28;8810;-59
2024/01/15 07:53:22;;;;;;;;;2.60;1.80;;;;;1.96;86.04;98313.06;5097799;28;8838;-58
2024/01/15 07:55:50;;;;;;;;;3.00;3.00;;;;;1.96;86.32;98319.13;5098160;28;9495;-59
2024/01/15 07:58:18;;;;;;;;;4.00;3.40;;;;;1.96;86.14;98311.28;5098126;28;8822;-57
2024/01/15 08:00:46;;;;;;;;;7.60;5.20;;;;;1.97;86.57;98312.94;5098080;28;8832;-59
2024/01/15 08:03:15;;;;;;;;;4.00;3.80;;;;;1.98;86.08;98317.25;5098215;28;8834;-58
2024/01/15 08:05:43;;;;;;;;;3.80;3.80;;;;;1.99;86.19;98311.03;5098348;28;8954;-58
2024/01/15 08:08:11;;;;;;;;;6.40;4.40;;;;;2.01;86.49;98308.31;5097927;28;8829;-58
2024/01/15 08:10:39;;;;;;;;;4.80;3.60;;;;;2.01;85.83;98317.03;5097130;28;8829;-59
2024/01/15 08:13:09;;;;;;;;;2.20;1.80;;;;;2.01;86.35;98311.78;5097042;28;8834;-57
2024/01/15 08:15:37;;;;;;;;;6.00;5.80;;;;;2.02;86.32;98310.84;5096559;28;8968;-58
2024/01/15 08:18:05;;;;;;;;;3.20;1.40;;;;;2.04;86.32;98313.38;5097301;28;8845;-59
2024/01/15 08:20:33;;;;;;;;;1.40;1.00;;;;;2.05;85.88;98313.22;5097067;28;8871;-57
2024/01/15 08:23:01;;;;;;;;;2.60;2.60;;;;;2.05;85.54;98299.28;5097632;28;8971;-59
2024/01/15 08:25:29;;;;;;;;;4.00;4.00;;;;;2.06;86.40;98293.91;5097474;28;8841;-58
2024/01/15 08:27:57;;;;;;;;;4.40;4.00;;;;;2.05;85.51;98291.41;5096261;28;8873;-57
2024/01/15 08:30:27;;;;;;;;;1.00;0.80;;;;;2.03;86.17;98294.13;5096404;28;8963;-58
2024/01/15 08:32:55;;;;;;;;;1.40;1.40;;;;;2.02;85.84;98289.00;5095889;28;8828;-57
2024/01/15 08:35:26;;;;;;;;;6.60;5.40;;;;;2.02;86.05;98284.59;5096112;28;8845;-58
2024/01/15 08:37:54;;;;;;;;;6.60;5.20;;;;;2.01;86.58;98289.94;5095726;28;8945;-59
2024/01/15 08:40:22;;;;;;;;;6.00;6.00;;;;;1.99;85.90;98278.72;5096187;28;8841;-56
2024/01/15 08:42:50;;;;;;;;;3.40;3.00;;;;;1.99;86.42;98291.84;5095447;28;8853;-58
2024/01/15 08:45:18;;;;;;;;;5.20;5.20;;;;;1.98;85.98;98290.19;5096895;28;8841;-57
2024/01/15 08:47:46;;;;;;;;;6.40;6.00;;;;;1.97;86.18;98293.75;5097167;28;8845;-59
2024/01/15 08:50:14;;;;;;;;;3.40;2.20;;;;;1.95;86.42;98298.25;5097492;28;8914;-57
2024/01/15 08:52:42;;;;;;;;;2.80;2.80;;;;;1.95;86.27;98291.22;5097193;28;8898;-58
2024/01/15 08:55:10;;;;;;;;;1.00;1.00;;;;;1.92;85.77;98299.34;5097108;28;8821;-59
2024/01/15 08:57:37;;;;;;;;;3.00;3.00;;;;;1.92;86.41;98295.84;5096397;28;8864;-58
2024/01/15 09:00:08;;;;;;;;;4.00;3.80;;;;;1.91;86.29;98300.25;5096800;28;8849;-57
2024/01/15 09:02:36;;;;;;;;;3.00;2.20;;;;;1.93;86.33;98308.03;5096161;28;8956;-59
2024/01/15 09:05:04;;;;;;;;;3.20;3.00;;;;;1.92;86.01;98301.97;5095945;28;8837;-59
2024/01/15 09:07:32;;;;;;;;;2.00;1.40;;;;;1.91;86.22;98307.31;5095052;28;8841;-59
2024/01/15 09:10:00;;;;;;;;;0.00;0.00;;;;;1.88;86.12;98300.47;5096067;28;8959;-59
2024/01/15 09:12:29;;;;;;;;;1.00;0.80;;;;;1.85;85.69;98305.09;5095137;28;8848;-58
2024/01/15 09:14:57;;;;;;;;;3.40;3.40;;;;;1.84;85.96;98299.03;5095900;28;8825;-57
2024/01/15 09:17:25;;;;;;;;;2.60;1.80;;;;;1.84;86.02;98309.53;5095596;28;8838;-58
2024/01/15 09:19:52;;;;;;;;;1.40;1.40;;;;;1.85;86.49;98312.97;5095402;28;8841;-59
2024/01/15 09:22:21;;;;;;;;;1.00;0.80;;;;;1.85;86.42;98316.47;5094459;28;8903;-59
2024/01/15 09:24:49;;;;;;;;;2.60;1.00;;;;;1.87;85.83;98313.69;5094700;28;9547;-59
2024/01/15 09:27:16;;;;;;;;;1.00;0.60;;;;;1.90;86.00;98310.88;5095268;28;8837;-59
2024/01/15 09:29:46;;;;;;;;;3.00;3.00;;;;;1.92;85.75;98306.34;5096168;28;8855;-59
2024/01/15 09:32:13;;;;;;;;;1.00;1.00;;;;;1.94;86.10;98314.94;5095468;28;8834;-60
2024/01/15 09:34:42;;;;;;;;;1.00;1.00;;;;;1.94;86.29;98314.94;5095285;28;8818;-59
2024/01/15 09:37:10;;;;;;;;;1.00;1.00;;;;;1.95;86.33;98317.47;5095054;28;8834;-59
2024/01/15 09:39:46;;;;;;;;;0.00;0.00;;;;;1.96;86.14;98321.75;5095131;28;8825;-59
2024/01/15 09:42:14;;;;;;;;;1.00;1.00;;;;;1.98;86.25;98321.66;5093860;28;8930;-58
2024/01/15 09:44:42;;;;;;;;;3.60;3.40;;;;;1.96;86.23;98318.31;5094181;28;8892;-59
2024/01/15 09:47:10;;;;;;;;;2.20;1.00;;;;;1.96;86.13;98319.13;5094319;28;8854;-59
2024/01/15 09:49:40;;;;;;;;;1.80;1.80;;;;;1.96;86.37;98315.69;5095694;28;8830;-58
2024/01/15 09:52:08;;;;;;;;;3.00;2.20;;;;;1.95;86.06;98314.84;5095654;28;8875;-57
2024/01/15 09:54:40;;;;;;;;;1.00;1.00;;;;;1.94;86.25;98318.41;5095864;28;8850;-57
2024/01/15 09:57:08;;;;;;;;;3.80;3.40;;;;;1.94;86.39;98318.41;5095839;28;8818;-55
2024/01/15 09:59:35;;;;;;;;;3.20;2.60;;;;;1.93;85.92;98321.16;5096104;28;8802;-57
2024/01/15 10:02:03;;;;;;;;;0.00;0.00;;;;;1.92;85.81;98325.56;5095717;28;8830;-54
2024/01/15 10:04:32;;;;;;;;;0.40;0.00;;;;;1.92;85.74;98328.19;5095616;28;8825;-56
2024/01/15 10:06:59;;;;;;;;;3.20;1.00;;;;;1.90;85.96;98319.56;5095145;28;8959;-56
2024/01/15 10:09:27;;;;;;;;;1.80;1.80;;;;;1.88;85.98;98329.34;5094694;28;8826;-57
2024/01/15 10:11:55;;;;;;;;;0.20;0.00;;;;;1.86;86.23;98333.88;5094176;28;8837;-56
2024/01/15 10:14:23;;;;;;;;;0.80;0.80;;;;;1.84;86.42;98325.28;5094317;28;8838;-57
2024/01/15 10:16:51;;;;;;;;;3.00;3.00;;;;;1.84;85.93;98319.19;5094608;28;8918;-57
2024/01/15 10:19:19;;;;;;;;;3.00;3.00;;;;;1.83;86.65;98318.31;5094832;28;8829;-54
2024/01/15 10:21:47;;;;;;;;;3.00;1.00;;;;;1.83;86.08;98320.94;5095360;28;8847;-54
2024/01/15 10:24:15;;;;;;;;;0.00;0.00;;;;;1.81;86.21;98322.84;5095876;28;8849;-54
2024/01/15 10:26:44;;;;;;;;;4.00;3.40;;;;;1.81;86.18;98319.41;5095615;28;8859;-55
2024/01/15 10:29:11;;;;;;;;;0.40;0.40;;;;;1.80;86.49;98323.81;5095805;28;8833;-54
2024/01/15 10:31:39;;;;;;;;;3.20;3.20;;;;;1.79;85.86;98311.63;5095171;28;8923;-55
2024/01/15 10:34:07;;;;;;;;;3.20;2.20;;;;;1.78;86.58;98309.97;5093247;28;8833;-56
2024/01/15 10:36:35;;;;;;;;;1.80;1.00;;;;;1.78;86.23;98309.09;5093499;28;9517;-54
2024/01/15 10:39:03;;;;;;;;;1.00;1.00;;;;;1.77;86.22;98303.03;5095028;28;8840;-57
2024/01/15 10:41:31;;;;;;;;;3.40;2.20;;;;;1.78;86.19;98312.59;5095080;28;9549;-56
2024/01/15 10:43:59;;;;;;;;;0.80;0.80;;;;;1.81;86.62;98307.09;5094655;28;8837;-57
2024/01/15 10:46:27;;;;;;;;;1.00;1.00;;;;;1.85;86.30;98311.22;5094136;28;8853;-57
2024/01/15 10:48:55;;;;;;;;;1.00;0.80;;;;;1.90;86.20;98309.06;5094119;28;8833;-56
2024/01/15 10:51:23;;;;;;;;;0.40;0.00;;;;;1.96;85.87;98313.91;5094494;28;8859;-56
2024/01/15 10:53:51;;;;;;;;;1.00;1.00;;;;;2.04;86.02;98316.00;5094127;28;9494;-56
2024/01/15 10:56:19;;;;;;;;;1.00;1.00;;;;;2.04;85.97;98306.31;5094289;28;8849;-57
2024/01/15 10:58:47;;;;;;;;;3.20;1.00;;;;;2.02;86.13;98307.38;5094839;28;8853;-57
2024/01/15 11:01:14;;;;;;;;;1.00;1.00;;;;;2.00;86.15;98311.88;5093489;28;8845;-55
2024/01/15 11:03:42;;;;;;;;;1.80;1.00;;;;;1.95;86.22;98312.22;5094172;28;9522;-55
2024/01/15 11:06:10;;;;;;;;;1.80;1.80;;;;;1.94;86.47;98315.81;5094073;28;8860;-57
2024/01/15 11:08:38;;;;;;;;;0.40;0.40;;;;;1.93;86.46;98314.13;5094822;28;8876;-57
2024/01/15 11:11:07;;;;;;;;;0.00;0.00;;;;;1.94;86.05;98315.81;5094582;28;8833;-56
2024/01/15 11:13:36;;;;;;;;;2.20;1.00;;;;;1.97;86.54;98317.38;5093936;28;8837;-57
2024/01/15 11:16:04;;;;;;;;;1.00;1.00;;;;;1.99;86.14;98313.66;5093453;28;8829;-57
2024/01/15 11:18:32;;;;;;;;;3.00;1.00;;;;;2.01;86.62;98305.69;5094019;28;8830;-57
2024/01/15 11:21:03;;;;;;;;;1.40;1.40;;;;;2.02;85.90;98310.00;5094431;28;8838;-59
2024/01/15 11:23:31;;;;;;;;;3.00;1.00;;;;;2.03;86.02;98304.63;5094357;28;8844;-60
2024/01/15 11:25:59;;;;;;;;;3.00;2.60;;;;;2.06;86.43;98303.59;5094357;28;8822;-59
2024/01/15 11:28:27;;;;;;;;;1.00;1.00;;;;;2.10;86.21;98305.03;5094614;28;8976;-58
2024/01/15 11:30:54;;;;;;;;;2.20;0.80;;;;;2.17;85.81;98303.63;5094805;28;8880;-59
2024/01/15 11:33:23;;;;;;;;;1.00;1.00;;;;;2.21;85.63;98313.81;5094896;28;9651;-60
2024/01/15 11:35:51;;;;;;;;;3.40;2.60;;;;;2.31;86.31;98313.97;5094728;28;8842;-57
2024/01/15 11:38:19;;;;;;;;;3.20;3.00;;;;;2.41;85.42;98305.31;5094421;28;8845;-59
2024/01/15 11:40:48;;;;;;;;;2.40;2.20;;;;;2.57;86.12;98316.38;5094003;28;8833;-59
2024/01/15 11:43:20;;;;;;;;;1.00;1.00;;;;;2.54;85.21;98321.03;5092944;28;8814;-59
2024/01/15 11:45:48;;;;;;;;;1.00;1.00;;;;;2.45;84.80;98319.94;5095498;28;8821;-59
2024/01/15 11:48:16;;;;;;;;;0.20;0.00;;;;;2.38;85.60;98317.84;5098051;28;8854;-57
2024/01/15 11:50:45;;;;;;;;;1.00;0.40;;;;;2.34;85.52;98319.03;5098146;28;8952;-57
2024/01/15 11:53:14;;;;;;;;;0.80;0.80;;;;;2.29;85.74;98306.22;5097940;28;8956;-57